Terminal Aerodrome Forecast
Issued by NWS Sterling, VA

Home | Current Version | Previous Version | Text Only | Print | Product List | Glossary On
Versions: 1 2 3 4 5 6 7 8 9 10 11 12 13 14 15 16 17 18 19 20 21 22 23 24 25
000
FTUS41 KLWX 292344 AAA
TAFBWI
TAF AMD
KBWI 292344Z 3000/3106 20005KT P6SM SCT250
     FM300400 19008KT P6SM OVC100 WS020/22040KT
     FM300900 20009KT P6SM -RA OVC030
     FM301200 20010KT P6SM OVC050
     FM301500 24011KT P6SM BKN050
     FM301800 28014G25KT P6SM SCT050
     FM302300 29009KT P6SM FEW250=

USA.gov is the U.S. government's official web portal to all federal, state and local government web resources and services.